createdAt,value
2022-12-04T00:01:14.055Z,0.70
2022-12-04T00:03:42.798Z,0.70
2022-12-04T00:06:13.753Z,0.70
2022-12-04T00:08:41.905Z,0.80
2022-12-04T00:11:13.682Z,0.80
2022-12-04T00:13:42.353Z,0.80
2022-12-04T00:16:14.729Z,0.70
2022-12-04T00:18:43.080Z,0.70
2022-12-04T00:21:13.321Z,0.80
2022-12-04T00:23:42.312Z,0.80
2022-12-04T00:26:13.169Z,0.80
2022-12-04T00:28:41.695Z,0.80
2022-12-04T00:31:11.338Z,0.70
2022-12-04T00:33:39.919Z,0.70
2022-12-04T00:36:10.285Z,0.70
2022-12-04T00:38:39.045Z,0.70
2022-12-04T00:41:09.369Z,0.70
2022-12-04T00:43:38.736Z,0.60
2022-12-04T00:46:07.106Z,0.70
2022-12-04T00:48:35.095Z,0.70
2022-12-04T00:51:04.417Z,0.70
2022-12-04T00:53:32.617Z,0.80
2022-12-04T00:56:04.071Z,0.80
2022-12-04T00:58:32.396Z,0.80
2022-12-04T01:01:07.285Z,0.80
2022-12-04T01:03:35.947Z,0.80
2022-12-04T01:06:04.898Z,0.80
2022-12-04T01:08:34.277Z,0.70
2022-12-04T01:11:06.992Z,0.80
2022-12-04T01:13:34.941Z,0.80
2022-12-04T01:16:05.090Z,0.70
2022-12-04T01:18:33.079Z,0.80
2022-12-04T01:21:01.195Z,0.70
2022-12-04T01:23:29.161Z,0.70
2022-12-04T01:25:59.220Z,0.80
2022-12-04T01:28:27.537Z,0.80
2022-12-04T01:31:03.618Z,0.70
2022-12-04T01:33:34.326Z,0.70
2022-12-04T01:36:03.850Z,0.70
2022-12-04T01:38:31.924Z,0.80
2022-12-04T01:41:00.097Z,0.80
2022-12-04T01:43:30.557Z,0.80
2022-12-04T01:45:59.553Z,0.90
2022-12-04T01:48:31.848Z,0.90
2022-12-04T01:51:07.108Z,0.90
2022-12-04T01:53:39.137Z,0.90
2022-12-04T01:56:08.195Z,0.80
2022-12-04T01:58:42.350Z,0.80
2022-12-04T02:01:10.618Z,0.80
2022-12-04T02:03:39.471Z,0.80
2022-12-04T02:06:09.009Z,0.80
2022-12-04T02:08:38.730Z,0.80
2022-12-04T02:11:14.650Z,0.80
2022-12-04T02:13:50.548Z,0.90
2022-12-04T02:16:26.035Z,0.80
2022-12-04T02:19:00.130Z,0.80
2022-12-04T02:21:34.122Z,0.80
2022-12-04T02:24:29.832Z,0.80
2022-12-04T02:27:03.157Z,0.70
2022-12-04T02:29:40.252Z,0.70
2022-12-04T02:32:15.831Z,0.80
2022-12-04T02:34:51.720Z,0.80
2022-12-04T02:37:26.374Z,0.80
2022-12-04T02:40:00.629Z,0.80
2022-12-04T02:42:34.952Z,0.80
2022-12-04T02:45:09.439Z,0.80
2022-12-04T02:47:39.045Z,0.80
2022-12-04T02:50:11.209Z,0.80
2022-12-04T02:52:45.247Z,0.80
2022-12-04T02:55:20.173Z,0.80
2022-12-04T02:57:51.914Z,0.90
2022-12-04T03:00:22.971Z,0.80
2022-12-04T03:02:57.961Z,0.80
2022-12-04T03:05:30.553Z,0.80
2022-12-04T03:08:02.624Z,0.80
2022-12-04T03:10:35.107Z,0.70
2022-12-04T03:13:07.324Z,0.70
2022-12-04T03:15:43.510Z,0.70
2022-12-04T03:18:16.434Z,0.70
2022-12-04T03:20:47.737Z,0.70
2022-12-04T03:23:21.722Z,0.70
2022-12-04T03:25:57.385Z,0.70
2022-12-04T03:28:32.635Z,0.70
2022-12-04T03:31:07.842Z,0.60
2022-12-04T03:33:42.898Z,0.60
2022-12-04T03:36:15.863Z,0.60
2022-12-04T03:38:48.373Z,0.60
2022-12-04T03:41:25.589Z,0.60
2022-12-04T03:44:00.192Z,0.70
2022-12-04T03:46:33.634Z,0.70
2022-12-04T03:49:11.917Z,0.70
2022-12-04T03:51:45.952Z,0.60
2022-12-04T03:54:18.353Z,0.70
2022-12-04T03:56:50.533Z,0.70
2022-12-04T03:59:23.402Z,0.60
2022-12-04T04:01:53.344Z,0.60
2022-12-04T04:04:27.020Z,0.60
2022-12-04T04:07:00.439Z,0.60
2022-12-04T04:09:33.323Z,0.60
2022-12-04T04:12:07.750Z,0.70
2022-12-04T04:14:58.127Z,0.70
2022-12-04T04:17:49.077Z,0.70
2022-12-04T04:20:39.575Z,0.70
2022-12-04T04:23:31.412Z,0.80
2022-12-04T04:26:01.875Z,0.70
2022-12-04T04:28:31.915Z,0.60
2022-12-04T04:31:07.216Z,0.60
2022-12-04T04:33:45.968Z,0.60
2022-12-04T04:36:20.624Z,0.50
2022-12-04T04:38:58.956Z,0.60
2022-12-04T04:41:34.288Z,0.60
2022-12-04T04:44:13.172Z,0.60
2022-12-04T04:46:44.873Z,0.60
2022-12-04T04:49:16.262Z,0.70
2022-12-04T04:51:45.700Z,0.60
2022-12-04T04:54:15.743Z,0.60
2022-12-04T04:56:45.483Z,0.50
2022-12-04T04:59:13.868Z,0.60
2022-12-04T05:01:44.575Z,0.60
2022-12-04T05:04:14.076Z,0.60
2022-12-04T05:06:42.332Z,0.60
2022-12-04T05:09:10.321Z,0.60
2022-12-04T05:11:38.393Z,0.60
2022-12-04T05:14:06.368Z,0.70
2022-12-04T05:16:34.390Z,0.70
2022-12-04T05:19:19.998Z,0.80
2022-12-04T05:21:49.308Z,0.70
2022-12-04T05:24:17.199Z,0.70
2022-12-04T05:26:45.321Z,0.80
2022-12-04T05:29:13.282Z,0.70
2022-12-04T05:31:41.333Z,0.70
2022-12-04T05:34:09.347Z,0.70
2022-12-04T05:36:37.272Z,0.80
2022-12-04T05:39:06.695Z,0.80
2022-12-04T05:41:34.644Z,0.80
2022-12-04T05:44:02.591Z,0.70
2022-12-04T05:46:30.529Z,0.80
2022-12-04T05:48:58.818Z,0.80
2022-12-04T05:51:26.731Z,0.80
2022-12-04T05:53:54.677Z,0.80
2022-12-04T05:56:24.323Z,0.80
2022-12-04T05:58:52.291Z,0.70
2022-12-04T06:01:23.395Z,0.80
2022-12-04T06:03:51.817Z,0.80
2022-12-04T06:06:22.553Z,0.80
2022-12-04T06:08:51.290Z,0.70
2022-12-04T06:11:20.901Z,0.80
2022-12-04T06:13:50.668Z,0.80
2022-12-04T06:16:20.649Z,0.80
2022-12-04T06:18:50.733Z,0.90
2022-12-04T06:21:19.880Z,0.90
2022-12-04T06:23:48.409Z,0.90
2022-12-04T06:26:16.592Z,0.90
2022-12-04T06:28:44.537Z,0.80
2022-12-04T06:31:15.593Z,0.80
2022-12-04T06:33:43.980Z,0.80
2022-12-04T06:36:14.393Z,0.80
2022-12-04T06:38:43.485Z,0.80
2022-12-04T06:41:13.092Z,0.70
2022-12-04T06:43:41.948Z,0.80
2022-12-04T06:46:12.496Z,0.80
2022-12-04T06:48:42.688Z,0.80
2022-12-04T06:51:12.839Z,0.70
2022-12-04T06:53:41.435Z,0.70
2022-12-04T06:56:11.516Z,0.70
2022-12-04T06:58:39.789Z,0.80
2022-12-04T07:01:09.353Z,0.70
2022-12-04T07:03:37.646Z,0.70
2022-12-04T07:06:14.450Z,0.70
2022-12-04T07:08:44.370Z,0.70
2022-12-04T07:11:13.212Z,0.70
2022-12-04T07:13:41.802Z,0.70
2022-12-04T07:16:13.642Z,0.70
2022-12-04T07:18:42.325Z,0.80
2022-12-04T07:21:12.918Z,0.70
2022-12-04T07:23:40.915Z,0.70
2022-12-04T07:26:11.547Z,0.70
2022-12-04T07:28:40.458Z,0.80
2022-12-04T07:31:10.778Z,0.80
2022-12-04T07:33:39.541Z,0.80
2022-12-04T07:36:10.028Z,0.70
2022-12-04T07:38:39.398Z,0.80
2022-12-04T07:41:08.338Z,0.80
2022-12-04T07:43:36.387Z,0.80
2022-12-04T07:46:07.190Z,0.80
2022-12-04T07:48:35.520Z,0.90
2022-12-04T07:51:04.848Z,0.80
2022-12-04T07:53:33.041Z,0.90
2022-12-04T07:56:02.408Z,0.90
2022-12-04T07:58:30.385Z,0.90
2022-12-04T08:01:06.820Z,0.90
2022-12-04T08:03:35.106Z,1.00
2022-12-04T08:06:03.428Z,1.00
2022-12-04T08:08:31.527Z,1.00
2022-12-04T08:10:59.830Z,1.10
2022-12-04T08:13:29.161Z,1.00
2022-12-04T08:15:57.177Z,1.10
2022-12-04T08:18:25.110Z,1.10
2022-12-04T08:20:53.099Z,1.10
2022-12-04T08:23:21.119Z,1.10
2022-12-04T08:25:49.094Z,1.10
2022-12-04T08:28:17.809Z,1.20
2022-12-04T08:30:47.289Z,1.20
2022-12-04T08:33:15.446Z,1.30
2022-12-04T08:35:43.554Z,1.20
2022-12-04T08:38:11.569Z,1.20
2022-12-04T08:40:41.911Z,1.30
2022-12-04T08:43:09.837Z,1.30
2022-12-04T08:45:37.953Z,1.30
2022-12-04T08:48:07.663Z,1.30
2022-12-04T08:50:35.730Z,1.30
2022-12-04T08:53:03.928Z,1.30
2022-12-04T08:55:32.593Z,1.30
2022-12-04T08:58:04.345Z,1.40
2022-12-04T09:00:32.681Z,1.40
2022-12-04T09:03:00.695Z,1.40
2022-12-04T09:05:30.759Z,1.40
2022-12-04T09:07:59.145Z,1.40
2022-12-04T09:10:27.201Z,1.40
2022-12-04T09:12:55.223Z,1.40
2022-12-04T09:15:23.255Z,1.40
2022-12-04T09:17:51.258Z,1.50
2022-12-04T09:20:19.597Z,1.50
2022-12-04T09:23:03.533Z,1.50
2022-12-04T09:25:32.593Z,1.40
2022-12-04T09:28:00.753Z,1.50
2022-12-04T09:30:28.727Z,1.50
2022-12-04T09:32:56.652Z,1.50
2022-12-04T09:35:24.819Z,1.50
2022-12-04T09:37:54.264Z,1.50
2022-12-04T09:40:35.238Z,1.60
2022-12-04T09:43:23.680Z,1.50
2022-12-04T09:45:55.086Z,1.50
2022-12-04T09:48:27.568Z,1.50
2022-12-04T09:50:56.293Z,1.50
2022-12-04T09:53:30.817Z,1.40
2022-12-04T09:56:03.517Z,1.40
2022-12-04T09:58:41.328Z,1.50
2022-12-04T10:01:21.798Z,1.50
2022-12-04T10:03:50.624Z,1.50
2022-12-04T10:06:24.096Z,1.50
2022-12-04T10:09:01.076Z,1.50
2022-12-04T10:11:41.224Z,1.50
2022-12-04T10:14:20.819Z,1.50
2022-12-04T10:17:08.367Z,1.50
2022-12-04T10:19:45.354Z,1.60
2022-12-04T10:22:19.566Z,1.60
2022-12-04T10:24:52.415Z,1.50
2022-12-04T10:27:24.440Z,1.50
2022-12-04T10:29:57.162Z,1.50
2022-12-04T10:32:29.949Z,1.50
2022-12-04T10:35:04.208Z,1.70
2022-12-04T10:37:39.985Z,1.70
2022-12-04T10:40:17.924Z,1.70
2022-12-04T10:42:52.884Z,1.70
2022-12-04T10:45:21.654Z,1.70
2022-12-04T10:47:52.887Z,1.60
2022-12-04T10:50:22.904Z,1.70
2022-12-04T10:52:51.292Z,1.60
2022-12-04T10:55:31.880Z,1.60
2022-12-04T10:58:00.092Z,1.60
2022-12-04T11:00:32.287Z,1.60
2022-12-04T11:03:03.509Z,1.60
2022-12-04T11:05:34.463Z,1.60
2022-12-04T11:08:05.552Z,1.60
2022-12-04T11:10:39.371Z,1.70
2022-12-04T11:13:16.711Z,1.60
2022-12-04T11:15:45.791Z,1.70
2022-12-04T11:18:19.397Z,1.60
2022-12-04T11:20:52.919Z,1.50
2022-12-04T11:23:21.928Z,1.70
2022-12-04T11:25:54.358Z,1.80
2022-12-04T11:28:41.199Z,1.80
2022-12-04T11:31:14.760Z,1.70
2022-12-04T11:33:50.017Z,1.80
2022-12-04T11:36:22.816Z,1.80
2022-12-04T11:38:52.929Z,1.80
2022-12-04T11:41:31.704Z,1.70
2022-12-04T11:44:00.968Z,1.80
2022-12-04T11:46:31.724Z,2.10
2022-12-04T11:49:00.215Z,2.20
2022-12-04T11:51:41.084Z,2.20
2022-12-04T11:54:19.772Z,2.10
2022-12-04T11:56:56.361Z,2.00
2022-12-04T11:59:42.362Z,2.00
2022-12-04T12:02:37.627Z,2.10
2022-12-04T12:05:23.199Z,2.10
2022-12-04T12:08:03.086Z,2.10
2022-12-04T12:10:43.035Z,2.20
2022-12-04T12:13:26.076Z,2.30
2022-12-04T12:16:09.072Z,2.40
2022-12-04T12:18:52.221Z,2.40
2022-12-04T12:21:24.945Z,2.40
2022-12-04T12:24:08.372Z,2.30
2022-12-04T12:26:46.412Z,2.30
2022-12-04T12:29:28.475Z,2.30
2022-12-04T12:32:19.298Z,2.30
2022-12-04T12:34:48.543Z,2.20
2022-12-04T12:37:23.725Z,2.10
2022-12-04T12:39:59.899Z,2.10
2022-12-04T12:42:34.014Z,2.00
2022-12-04T12:45:15.654Z,2.00
2022-12-04T12:47:46.778Z,2.00
2022-12-04T12:50:21.096Z,1.90
2022-12-04T12:52:56.978Z,1.90
2022-12-04T12:55:28.237Z,1.90
2022-12-04T12:58:07.519Z,2.00
2022-12-04T13:00:44.865Z,1.90
2022-12-04T13:03:27.056Z,1.90
2022-12-04T13:06:00.855Z,1.90
2022-12-04T13:08:33.328Z,1.80
2022-12-04T13:11:06.802Z,1.90
2022-12-04T13:13:40.323Z,1.90
2022-12-04T13:16:13.462Z,1.80
2022-12-04T13:18:46.760Z,1.90
2022-12-04T13:21:32.067Z,2.00
2022-12-04T13:24:37.769Z,1.90
2022-12-04T13:27:11.902Z,1.90
2022-12-04T13:29:53.387Z,2.00
2022-12-04T13:32:45.548Z,1.90
2022-12-04T13:35:23.083Z,1.90
2022-12-04T13:38:15.279Z,1.90
2022-12-04T13:40:47.763Z,1.90
2022-12-04T13:43:29.591Z,1.90
2022-12-04T13:46:01.520Z,1.90
2022-12-04T13:48:39.584Z,1.90
2022-12-04T13:51:37.210Z,1.90
2022-12-04T13:54:27.409Z,1.90
2022-12-04T13:57:00.529Z,2.00
2022-12-04T13:59:40.340Z,1.90
2022-12-04T14:02:25.429Z,1.90
2022-12-04T14:04:59.091Z,1.90
2022-12-04T14:07:30.570Z,1.90
2022-12-04T14:10:04.643Z,1.90
2022-12-04T14:12:36.303Z,1.80
2022-12-04T14:15:07.873Z,1.90
2022-12-04T14:17:38.523Z,1.90
2022-12-04T14:20:22.716Z,1.90
2022-12-04T14:22:51.006Z,1.90
2022-12-04T14:25:33.546Z,1.90
2022-12-04T14:28:12.548Z,1.80
2022-12-04T14:30:41.879Z,1.70
2022-12-04T14:33:13.360Z,1.80
2022-12-04T14:35:50.542Z,1.80
2022-12-04T14:38:22.866Z,1.80
2022-12-04T14:40:53.792Z,1.80
2022-12-04T14:43:23.987Z,1.80
2022-12-04T14:45:59.115Z,1.80
2022-12-04T14:48:34.950Z,1.80
2022-12-04T14:51:13.516Z,1.80
2022-12-04T14:53:46.677Z,1.70
2022-12-04T14:56:33.744Z,1.80
2022-12-04T14:59:07.361Z,1.80
2022-12-04T15:01:38.680Z,1.80
2022-12-04T15:04:14.892Z,1.70
2022-12-04T15:06:48.594Z,1.70
2022-12-04T15:09:36.730Z,1.70
2022-12-04T15:12:36.272Z,1.70
2022-12-04T15:15:17.429Z,1.70
2022-12-04T15:17:45.860Z,1.70
2022-12-04T15:20:19.169Z,1.70
2022-12-04T15:22:48.885Z,1.70
2022-12-04T15:25:20.490Z,1.70
2022-12-04T15:27:50.001Z,1.70
2022-12-04T15:30:20.608Z,1.70
2022-12-04T15:32:51.273Z,1.70
2022-12-04T15:35:24.918Z,1.60
2022-12-04T15:37:54.910Z,1.60
2022-12-04T15:40:25.245Z,1.60
2022-12-04T15:42:53.305Z,1.60
2022-12-04T15:45:31.615Z,1.60
2022-12-04T15:47:59.613Z,1.60
2022-12-04T15:50:30.048Z,1.50
2022-12-04T15:53:08.139Z,1.50
2022-12-04T15:55:40.373Z,1.60
2022-12-04T15:58:19.120Z,1.50
2022-12-04T16:00:47.481Z,1.50
2022-12-04T16:03:26.578Z,1.50
2022-12-04T16:06:05.295Z,1.50
2022-12-04T16:08:36.622Z,1.50
2022-12-04T16:11:07.876Z,1.60
2022-12-04T16:13:38.428Z,1.60
2022-12-04T16:16:11.359Z,1.60
2022-12-04T16:18:40.606Z,1.60
2022-12-04T16:21:13.876Z,1.70
2022-12-04T16:23:43.913Z,1.70
2022-12-04T16:26:13.789Z,1.70
2022-12-04T16:28:41.817Z,1.60
2022-12-04T16:31:11.872Z,1.60
2022-12-04T16:33:40.391Z,1.50
2022-12-04T16:36:10.901Z,1.60
2022-12-04T16:38:39.007Z,1.50
2022-12-04T16:41:14.131Z,1.60
2022-12-04T16:43:42.680Z,1.70
2022-12-04T16:46:15.089Z,1.70
2022-12-04T16:48:43.273Z,1.80
2022-12-04T16:51:16.110Z,2.00
2022-12-04T16:53:44.302Z,2.00
2022-12-04T16:56:14.084Z,1.80
2022-12-04T16:58:42.177Z,1.80
2022-12-04T17:01:22.409Z,1.80
2022-12-04T17:03:51.102Z,1.80
2022-12-04T17:06:20.030Z,1.90
2022-12-04T17:08:48.089Z,1.80
2022-12-04T17:11:18.773Z,1.90
2022-12-04T17:13:47.579Z,1.90
2022-12-04T17:16:19.601Z,2.00
2022-12-04T17:18:48.087Z,1.90
2022-12-04T17:21:16.131Z,2.00
2022-12-04T17:23:44.846Z,2.10
2022-12-04T17:26:15.130Z,2.10
2022-12-04T17:28:44.595Z,2.00
2022-12-04T17:31:16.039Z,2.00
2022-12-04T17:33:44.706Z,2.00
2022-12-04T17:36:15.006Z,2.10
2022-12-04T17:38:43.618Z,2.10
2022-12-04T17:41:14.987Z,2.00
2022-12-04T17:43:45.080Z,2.00
2022-12-04T17:46:14.763Z,2.00
2022-12-04T17:48:43.426Z,2.00
2022-12-04T17:51:13.817Z,2.10
2022-12-04T17:53:41.941Z,2.10
2022-12-04T17:56:12.047Z,2.00
2022-12-04T17:58:40.772Z,2.00
2022-12-04T18:01:13.585Z,2.10
2022-12-04T18:03:43.436Z,2.10
2022-12-04T18:06:16.044Z,2.20
2022-12-04T18:08:49.779Z,2.10
2022-12-04T18:11:20.541Z,2.00
2022-12-04T18:13:49.269Z,1.90
2022-12-04T18:16:18.773Z,1.80
2022-12-04T18:18:47.522Z,1.80
2022-12-04T18:21:16.171Z,1.80
2022-12-04T18:23:46.046Z,1.70
2022-12-04T18:26:16.749Z,1.70
2022-12-04T18:28:47.373Z,1.60
2022-12-04T18:31:17.050Z,1.60
2022-12-04T18:33:46.511Z,1.60
2022-12-04T18:36:17.054Z,1.60
2022-12-04T18:38:45.992Z,1.70
2022-12-04T18:41:15.479Z,2.20
2022-12-04T18:43:45.932Z,2.40
2022-12-04T18:46:16.471Z,2.50
2022-12-04T18:48:47.258Z,2.50
2022-12-04T18:51:18.137Z,2.50
2022-12-04T18:53:46.686Z,2.40
2022-12-04T18:56:14.944Z,2.30
2022-12-04T18:58:44.647Z,2.20
2022-12-04T19:01:15.214Z,2.10
2022-12-04T19:03:43.604Z,2.00
2022-12-04T19:06:15.950Z,2.00
2022-12-04T19:08:44.060Z,2.00
2022-12-04T19:11:13.699Z,2.00
2022-12-04T19:13:42.091Z,2.00
2022-12-04T19:16:13.183Z,2.00
2022-12-04T19:18:42.177Z,1.80
2022-12-04T19:21:12.021Z,1.80
2022-12-04T19:23:39.985Z,1.80
2022-12-04T19:26:10.779Z,1.70
2022-12-04T19:28:38.930Z,1.80
2022-12-04T19:31:14.933Z,1.90
2022-12-04T19:33:43.102Z,2.00
2022-12-04T19:36:14.216Z,1.90
2022-12-04T19:38:42.806Z,1.90
2022-12-04T19:41:13.124Z,1.90
2022-12-04T19:43:43.829Z,1.90
2022-12-04T19:46:13.917Z,1.90
2022-12-04T19:48:42.358Z,1.90
2022-12-04T19:51:14.371Z,2.00
2022-12-04T19:53:43.382Z,2.00
2022-12-04T19:56:14.049Z,1.80
2022-12-04T19:58:42.488Z,1.80
2022-12-04T20:01:13.831Z,1.70
2022-12-04T20:03:42.119Z,1.70
2022-12-04T20:06:14.310Z,1.80
2022-12-04T20:08:43.347Z,1.80
2022-12-04T20:11:15.688Z,1.80
2022-12-04T20:13:44.639Z,1.70
2022-12-04T20:16:14.740Z,1.70
2022-12-04T20:18:43.451Z,1.70
2022-12-04T20:21:14.206Z,1.70
2022-12-04T20:23:43.288Z,1.80
2022-12-04T20:26:14.852Z,1.70
2022-12-04T20:28:43.475Z,1.70
2022-12-04T20:31:15.968Z,1.90
2022-12-04T20:33:44.333Z,2.00
2022-12-04T20:36:15.706Z,2.00
2022-12-04T20:38:44.327Z,1.90
2022-12-04T20:41:15.955Z,1.90
2022-12-04T20:43:44.829Z,1.90
2022-12-04T20:46:17.400Z,1.80
2022-12-04T20:48:48.853Z,1.80
2022-12-04T20:51:19.763Z,1.80
2022-12-04T20:53:49.764Z,1.80
2022-12-04T20:56:18.518Z,1.80
2022-12-04T20:58:55.098Z,1.70
2022-12-04T21:01:24.314Z,1.70
2022-12-04T21:03:53.816Z,1.70
2022-12-04T21:06:28.331Z,1.70
2022-12-04T21:09:02.087Z,1.70
2022-12-04T21:11:32.427Z,1.70
2022-12-04T21:14:22.469Z,1.80
2022-12-04T21:16:50.876Z,1.80
2022-12-04T21:19:21.374Z,1.70
2022-12-04T21:21:54.476Z,1.80
2022-12-04T21:24:24.275Z,1.80
2022-12-04T21:26:52.243Z,1.80
2022-12-04T21:29:20.901Z,1.80
2022-12-04T21:31:49.300Z,1.70
2022-12-04T21:34:18.594Z,1.70
2022-12-04T21:36:47.316Z,1.70
2022-12-04T21:39:17.202Z,1.70
2022-12-04T21:42:02.923Z,1.70
2022-12-04T21:44:31.099Z,1.70
2022-12-04T21:46:59.404Z,1.70
2022-12-04T21:49:27.811Z,1.70
2022-12-04T21:51:57.633Z,1.70
2022-12-04T21:54:28.052Z,1.70
2022-12-04T21:56:56.556Z,1.80
2022-12-04T21:59:25.322Z,1.80
2022-12-04T22:01:54.316Z,1.80
2022-12-04T22:04:22.935Z,1.80
2022-12-04T22:06:51.175Z,1.80
2022-12-04T22:09:19.546Z,1.80
2022-12-04T22:11:49.115Z,1.70
2022-12-04T22:14:17.271Z,1.70
2022-12-04T22:16:45.403Z,1.60
2022-12-04T22:19:14.165Z,1.70
2022-12-04T22:21:42.122Z,1.80
2022-12-04T22:24:11.461Z,1.70
2022-12-04T22:26:40.229Z,1.80
2022-12-04T22:29:48.073Z,1.80
2022-12-04T22:31:57.897Z,1.80
2022-12-04T22:34:26.031Z,1.70
2022-12-04T22:36:54.205Z,1.80
2022-12-04T22:39:22.123Z,1.80
2022-12-04T22:41:50.121Z,1.80
2022-12-04T22:44:19.567Z,1.70
2022-12-04T22:46:47.839Z,1.80
2022-12-04T22:49:16.325Z,1.80
2022-12-04T22:51:44.342Z,1.80
2022-12-04T22:54:14.715Z,1.70
2022-12-04T22:56:43.579Z,1.70
2022-12-04T22:59:11.695Z,1.70
2022-12-04T23:01:43.239Z,1.70
2022-12-04T23:04:11.271Z,1.70
2022-12-04T23:06:39.499Z,1.70
2022-12-04T23:09:10.012Z,1.70
2022-12-04T23:11:38.652Z,1.60
2022-12-04T23:14:09.121Z,1.60
2022-12-04T23:16:39.041Z,1.60
2022-12-04T23:19:10.098Z,1.70
2022-12-04T23:21:38.060Z,1.70
2022-12-04T23:24:06.913Z,1.70
2022-12-04T23:26:37.363Z,1.80
2022-12-04T23:29:23.412Z,1.80
2022-12-04T23:31:54.425Z,1.80
2022-12-04T23:34:23.892Z,1.80
2022-12-04T23:36:51.865Z,1.80
2022-12-04T23:39:19.952Z,1.70
2022-12-04T23:41:47.924Z,1.80
2022-12-04T23:44:15.858Z,1.80
2022-12-04T23:46:44.041Z,1.80
2022-12-04T23:49:12.068Z,1.70
2022-12-04T23:51:41.382Z,1.70
2022-12-04T23:54:09.322Z,1.70
2022-12-04T23:56:37.330Z,1.70
2022-12-04T23:59:05.305Z,1.70
